sensor_id;sensor_type;location;lat;lon;timestamp;pressure;altitude;pressure_sealevel;temperature;humidity
17785;BME280;9016;53.582;10.062;2022-10-16T00:02:23;100851.44;;;16.43;89.78
17785;BME280;9016;53.582;10.062;2022-10-16T00:04:51;100854.84;;;16.45;89.83
17785;BME280;9016;53.582;10.062;2022-10-16T00:07:18;100854.84;;;16.45;89.17
17785;BME280;9016;53.582;10.062;2022-10-16T00:09:47;100851.22;;;16.35;89.36
17785;BME280;9016;53.582;10.062;2022-10-16T00:12:16;100860.25;;;16.23;88.76
17785;BME280;9016;53.582;10.062;2022-10-16T00:14:44;100851.25;;;16.24;88.50
17785;BME280;9016;53.582;10.062;2022-10-16T00:17:11;100860.03;;;16.26;88.14
17785;BME280;9016;53.582;10.062;2022-10-16T00:19:45;100856.34;;;16.27;87.62
17785;BME280;9016;53.582;10.062;2022-10-16T00:22:13;100861.53;;;16.19;86.96
17785;BME280;9016;53.582;10.062;2022-10-16T00:24:41;100861.03;;;16.14;86.54
17785;BME280;9016;53.582;10.062;2022-10-16T00:27:09;100861.53;;;16.19;86.95
17785;BME280;9016;53.582;10.062;2022-10-16T00:29:38;100866.03;;;16.30;86.13
17785;BME280;9016;53.582;10.062;2022-10-16T00:32:06;100860.16;;;16.25;85.25
17785;BME280;9016;53.582;10.062;2022-10-16T00:34:34;100866.28;;;16.27;84.37
17785;BME280;9016;53.582;10.062;2022-10-16T00:37:02;100858.28;;;16.36;84.53
17785;BME280;9016;53.582;10.062;2022-10-16T00:39:30;100872.59;;;16.37;82.94
17785;BME280;9016;53.582;10.062;2022-10-16T00:41:58;100874.81;;;16.32;82.96
17785;BME280;9016;53.582;10.062;2022-10-16T00:44:48;100883.25;;;16.27;82.26
17785;BME280;9016;53.582;10.062;2022-10-16T00:47:22;100880.94;;;16.23;82.26
17785;BME280;9016;53.582;10.062;2022-10-16T00:49:53;100884.13;;;16.17;81.11
17785;BME280;9016;53.582;10.062;2022-10-16T00:52:23;100884.00;;;16.18;81.33
17785;BME280;9016;53.582;10.062;2022-10-16T00:54:52;100881.19;;;16.20;80.71
17785;BME280;9016;53.582;10.062;2022-10-16T00:57:21;100884.59;;;16.22;80.62
17785;BME280;9016;53.582;10.062;2022-10-16T00:59:50;100879.59;;;16.28;79.85
17785;BME280;9016;53.582;10.062;2022-10-16T01:02:18;100878.38;;;16.32;78.97
17785;BME280;9016;53.582;10.062;2022-10-16T01:04:48;100886.31;;;16.34;78.97
17785;BME280;9016;53.582;10.062;2022-10-16T01:07:26;100881.06;;;16.32;78.21
17785;BME280;9016;53.582;10.062;2022-10-16T01:10:06;100895.56;;;16.41;77.55
17785;BME280;9016;53.582;10.062;2022-10-16T01:12:40;100881.53;;;16.37;76.49
17785;BME280;9016;53.582;10.062;2022-10-16T01:15:18;100891.16;;;16.40;77.55
17785;BME280;9016;53.582;10.062;2022-10-16T01:17:53;100898.72;;;16.46;77.26
17785;BME280;9016;53.582;10.062;2022-10-16T01:20:27;100905.13;;;16.45;76.66
17785;BME280;9016;53.582;10.062;2022-10-16T01:23:04;100894.72;;;16.40;77.95
17785;BME280;9016;53.582;10.062;2022-10-16T01:25:44;100897.41;;;16.40;77.47
17785;BME280;9016;53.582;10.062;2022-10-16T01:28:19;100911.72;;;16.30;79.04
17785;BME280;9016;53.582;10.062;2022-10-16T01:30:50;100912.34;;;16.22;79.16
17785;BME280;9016;53.582;10.062;2022-10-16T01:33:23;100911.88;;;16.28;79.01
17785;BME280;9016;53.582;10.062;2022-10-16T01:35:54;100911.13;;;16.26;79.64
17785;BME280;9016;53.582;10.062;2022-10-16T01:38:26;100916.03;;;16.21;79.88
17785;BME280;9016;53.582;10.062;2022-10-16T01:41:02;100901.34;;;16.03;79.42
17785;BME280;9016;53.582;10.062;2022-10-16T01:43:35;100902.47;;;16.01;80.49
17785;BME280;9016;53.582;10.062;2022-10-16T01:46:05;100905.78;;;16.04;80.08
17785;BME280;9016;53.582;10.062;2022-10-16T01:48:34;100913.34;;;15.99;80.03
17785;BME280;9016;53.582;10.062;2022-10-16T01:51:06;100898.31;;;15.97;79.51
17785;BME280;9016;53.582;10.062;2022-10-16T01:53:36;100902.69;;;15.86;79.38
17785;BME280;9016;53.582;10.062;2022-10-16T01:56:08;100897.31;;;15.86;80.41
17785;BME280;9016;53.582;10.062;2022-10-16T01:58:41;100902.22;;;15.81;80.29
17785;BME280;9016;53.582;10.062;2022-10-16T02:01:13;100904.28;;;15.67;80.16
17785;BME280;9016;53.582;10.062;2022-10-16T02:03:44;100902.69;;;15.75;80.31
17785;BME280;9016;53.582;10.062;2022-10-16T02:06:14;100909.94;;;15.75;79.62
17785;BME280;9016;53.582;10.062;2022-10-16T02:08:42;100908.94;;;15.76;79.81
17785;BME280;9016;53.582;10.062;2022-10-16T02:11:11;100912.00;;;15.82;80.34
17785;BME280;9016;53.582;10.062;2022-10-16T02:13:43;100901.00;;;15.85;79.77
17785;BME280;9016;53.582;10.062;2022-10-16T02:16:13;100907.25;;;15.86;79.94
17785;BME280;9016;53.582;10.062;2022-10-16T02:18:43;100913.34;;;15.88;80.66
17785;BME280;9016;53.582;10.062;2022-10-16T02:21:14;100907.00;;;15.89;80.45
17785;BME280;9016;53.582;10.062;2022-10-16T02:23:50;100905.91;;;15.80;80.61
17785;BME280;9016;53.582;10.062;2022-10-16T02:26:23;100909.94;;;15.75;80.90
17785;BME280;9016;53.582;10.062;2022-10-16T02:29:00;100908.31;;;15.72;81.17
17785;BME280;9016;53.582;10.062;2022-10-16T02:31:32;100917.84;;;15.65;81.58
17785;BME280;9016;53.582;10.062;2022-10-16T02:34:03;100907.84;;;15.67;81.40
17785;BME280;9016;53.582;10.062;2022-10-16T02:36:33;100921.41;;;15.66;81.58
17785;BME280;9016;53.582;10.062;2022-10-16T02:39:03;100926.88;;;15.64;81.61
17785;BME280;9016;53.582;10.062;2022-10-16T02:41:32;100919.16;;;15.49;82.02
17785;BME280;9016;53.582;10.062;2022-10-16T02:44:02;100908.91;;;15.54;81.80
17785;BME280;9016;53.582;10.062;2022-10-16T02:46:30;100912.00;;;15.37;81.66
17785;BME280;9016;53.582;10.062;2022-10-16T02:48:57;100908.88;;;15.43;82.44
17785;BME280;9016;53.582;10.062;2022-10-16T02:51:25;100915.31;;;15.40;82.04
17785;BME280;9016;53.582;10.062;2022-10-16T02:53:53;100917.16;;;15.40;81.97
17785;BME280;9016;53.582;10.062;2022-10-16T02:56:21;100913.53;;;15.41;82.46
17785;BME280;9016;53.582;10.062;2022-10-16T02:58:49;100930.25;;;15.44;82.03
17785;BME280;9016;53.582;10.062;2022-10-16T03:01:19;100924.47;;;15.38;82.24
17785;BME280;9016;53.582;10.062;2022-10-16T03:03:47;100920.06;;;15.37;82.41
17785;BME280;9016;53.582;10.062;2022-10-16T03:06:15;100918.97;;;15.28;82.40
17785;BME280;9016;53.582;10.062;2022-10-16T03:08:43;100916.59;;;15.24;82.98
17785;BME280;9016;53.582;10.062;2022-10-16T03:11:11;100918.34;;;15.25;83.16
17785;BME280;9016;53.582;10.062;2022-10-16T03:13:39;100909.53;;;15.23;83.20
17785;BME280;9016;53.582;10.062;2022-10-16T03:16:07;100908.06;;;15.19;83.39
17785;BME280;9016;53.582;10.062;2022-10-16T03:18:36;100906.09;;;15.10;83.41
17785;BME280;9016;53.582;10.062;2022-10-16T03:21:04;100900.84;;;15.08;83.92
17785;BME280;9016;53.582;10.062;2022-10-16T03:23:32;100907.28;;;15.06;84.01
17785;BME280;9016;53.582;10.062;2022-10-16T03:26:00;100911.16;;;15.02;83.76
17785;BME280;9016;53.582;10.062;2022-10-16T03:28:28;100917.16;;;15.05;83.99
17785;BME280;9016;53.582;10.062;2022-10-16T03:30:56;100919.00;;;15.05;83.73
17785;BME280;9016;53.582;10.062;2022-10-16T03:33:24;100918.72;;;14.97;83.94
17785;BME280;9016;53.582;10.062;2022-10-16T03:35:54;100920.44;;;14.98;84.10
17785;BME280;9016;53.582;10.062;2022-10-16T03:38:22;100921.28;;;14.98;84.34
17785;BME280;9016;53.582;10.062;2022-10-16T03:40:50;100923.78;;;14.88;84.41
17785;BME280;9016;53.582;10.062;2022-10-16T03:43:18;100929.53;;;14.84;84.67
17785;BME280;9016;53.582;10.062;2022-10-16T03:45:46;100930.59;;;14.81;85.38
17785;BME280;9016;53.582;10.062;2022-10-16T03:48:14;100932.81;;;14.87;84.93
17785;BME280;9016;53.582;10.062;2022-10-16T03:50:42;100930.88;;;14.89;84.53
17785;BME280;9016;53.582;10.062;2022-10-16T03:53:11;100942.19;;;14.82;84.89
17785;BME280;9016;53.582;10.062;2022-10-16T03:55:41;100930.25;;;14.86;85.08
17785;BME280;9016;53.582;10.062;2022-10-16T03:58:09;100925.53;;;14.89;84.57
17785;BME280;9016;53.582;10.062;2022-10-16T04:00:40;100924.78;;;14.87;84.65
17785;BME280;9016;53.582;10.062;2022-10-16T04:03:11;100924.47;;;14.79;84.89
17785;BME280;9016;53.582;10.062;2022-10-16T04:05:40;100932.81;;;14.87;84.34
17785;BME280;9016;53.582;10.062;2022-10-16T04:08:07;100941.88;;;14.86;84.31
17785;BME280;9016;53.582;10.062;2022-10-16T04:10:37;100947.56;;;14.82;84.49
17785;BME280;9016;53.582;10.062;2022-10-16T04:13:05;100959.16;;;14.82;84.59
17785;BME280;9016;53.582;10.062;2022-10-16T04:15:33;100956.59;;;14.81;84.57
17785;BME280;9016;53.582;10.062;2022-10-16T04:18:01;100964.41;;;14.84;84.17
17785;BME280;9016;53.582;10.062;2022-10-16T04:20:29;100965.47;;;14.81;84.28
17785;BME280;9016;53.582;10.062;2022-10-16T04:22:57;100965.72;;;14.78;84.49
17785;BME280;9016;53.582;10.062;2022-10-16T04:25:25;100966.47;;;14.80;84.84
17785;BME280;9016;53.582;10.062;2022-10-16T04:27:54;100973.53;;;14.81;84.49
17785;BME280;9016;53.582;10.062;2022-10-16T04:30:23;100975.25;;;14.82;84.35
17785;BME280;9016;53.582;10.062;2022-10-16T04:32:51;100973.31;;;14.84;84.57
17785;BME280;9016;53.582;10.062;2022-10-16T04:35:21;100970.97;;;14.80;84.26
17785;BME280;9016;53.582;10.062;2022-10-16T04:37:48;100967.31;;;14.81;84.18
17785;BME280;9016;53.582;10.062;2022-10-16T04:40:17;100974.50;;;14.80;84.29
17785;BME280;9016;53.582;10.062;2022-10-16T04:42:45;100979.38;;;14.75;84.39
17785;BME280;9016;53.582;10.062;2022-10-16T04:45:14;100992.78;;;14.75;84.64
17785;BME280;9016;53.582;10.062;2022-10-16T04:47:43;100986.31;;;14.78;84.53
17785;BME280;9016;53.582;10.062;2022-10-16T04:50:11;100987.16;;;14.78;84.30
17785;BME280;9016;53.582;10.062;2022-10-16T04:52:38;100981.38;;;14.72;84.17
17785;BME280;9016;53.582;10.062;2022-10-16T04:55:07;100991.72;;;14.65;84.41
17785;BME280;9016;53.582;10.062;2022-10-16T04:57:35;100988.06;;;14.66;84.88
17785;BME280;9016;53.582;10.062;2022-10-16T05:00:03;100993.97;;;14.71;84.66
17785;BME280;9016;53.582;10.062;2022-10-16T05:02:33;100989.56;;;14.70;84.25
17785;BME280;9016;53.582;10.062;2022-10-16T05:05:01;100989.44;;;14.72;84.64
17785;BME280;9016;53.582;10.062;2022-10-16T05:07:29;100998.47;;;14.71;84.63
17785;BME280;9016;53.582;10.062;2022-10-16T05:09:56;101003.63;;;14.61;84.61
17785;BME280;9016;53.582;10.062;2022-10-16T05:12:24;101003.50;;;14.63;85.67
17785;BME280;9016;53.582;10.062;2022-10-16T05:14:52;101005.13;;;14.65;85.55
17785;BME280;9016;53.582;10.062;2022-10-16T05:17:25;101010.72;;;14.62;85.55
17785;BME280;9016;53.582;10.062;2022-10-16T05:19:55;101009.88;;;14.62;85.99
17785;BME280;9016;53.582;10.062;2022-10-16T05:22:23;101023.16;;;14.63;85.57
17785;BME280;9016;53.582;10.062;2022-10-16T05:24:51;101021.22;;;14.65;85.64
17785;BME280;9016;53.582;10.062;2022-10-16T05:27:19;101021.47;;;14.62;85.75
17785;BME280;9016;53.582;10.062;2022-10-16T05:29:47;101021.66;;;14.59;86.01
17785;BME280;9016;53.582;10.062;2022-10-16T05:32:17;101019.84;;;14.60;86.29
17785;BME280;9016;53.582;10.062;2022-10-16T05:34:45;101017.91;;;14.62;86.45
17785;BME280;9016;53.582;10.062;2022-10-16T05:37:14;101023.06;;;14.52;87.15
17785;BME280;9016;53.582;10.062;2022-10-16T05:39:42;101024.81;;;14.53;87.02
17785;BME280;9016;53.582;10.062;2022-10-16T05:42:10;101027.25;;;14.56;86.73
17785;BME280;9016;53.582;10.062;2022-10-16T05:44:38;101034.31;;;14.57;86.92
17785;BME280;9016;53.582;10.062;2022-10-16T05:47:06;101024.34;;;14.59;86.71
17785;BME280;9016;53.582;10.062;2022-10-16T05:49:33;101022.41;;;14.61;86.68
17785;BME280;9016;53.582;10.062;2022-10-16T05:52:06;101012.88;;;14.57;86.89
17785;BME280;9016;53.582;10.062;2022-10-16T05:54:36;101013.63;;;14.59;87.22
17785;BME280;9016;53.582;10.062;2022-10-16T05:57:03;101010.19;;;14.57;86.89
17785;BME280;9016;53.582;10.062;2022-10-16T05:59:32;101025.31;;;14.58;87.50
17785;BME280;9016;53.582;10.062;2022-10-16T06:02:00;101029.28;;;14.65;87.20
17785;BME280;9016;53.582;10.062;2022-10-16T06:04:28;101042.25;;;14.71;86.81
17785;BME280;9016;53.582;10.062;2022-10-16T06:06:58;101037.72;;;14.72;86.87
17785;BME280;9016;53.582;10.062;2022-10-16T06:09:27;101040.06;;;14.76;86.38
17785;BME280;9016;53.582;10.062;2022-10-16T06:11:56;101039.84;;;14.79;86.29
17785;BME280;9016;53.582;10.062;2022-10-16T06:14:24;101040.16;;;14.87;86.46
17785;BME280;9016;53.582;10.062;2022-10-16T06:16:52;101041.75;;;14.90;86.36
17785;BME280;9016;53.582;10.062;2022-10-16T06:19:20;101038.59;;;14.96;86.00
17785;BME280;9016;53.582;10.062;2022-10-16T06:21:49;101038.72;;;14.95;85.50
17785;BME280;9016;53.582;10.062;2022-10-16T06:24:17;101041.97;;;14.87;85.86
17785;BME280;9016;53.582;10.062;2022-10-16T06:26:44;101044.78;;;14.85;85.82
17785;BME280;9016;53.582;10.062;2022-10-16T06:29:14;101051.13;;;14.84;85.93
17785;BME280;9016;53.582;10.062;2022-10-16T06:31:42;101056.56;;;14.83;86.20
17785;BME280;9016;53.582;10.062;2022-10-16T06:34:10;101049.75;;;14.79;86.35
17785;BME280;9016;53.582;10.062;2022-10-16T06:36:38;101045.31;;;14.78;87.31
17785;BME280;9016;53.582;10.062;2022-10-16T06:39:06;101056.97;;;14.66;87.54
17785;BME280;9016;53.582;10.062;2022-10-16T06:41:35;101065.75;;;14.68;87.82
17785;BME280;9016;53.582;10.062;2022-10-16T06:44:05;101066.66;;;14.79;87.68
17785;BME280;9016;53.582;10.062;2022-10-16T06:46:34;101064.31;;;14.87;87.92
17785;BME280;9016;53.582;10.062;2022-10-16T06:49:03;101058.13;;;14.98;87.41
17785;BME280;9016;53.582;10.062;2022-10-16T06:51:31;101056.31;;;14.99;86.51
17785;BME280;9016;53.582;10.062;2022-10-16T06:54:06;101075.75;;;15.02;86.97
17785;BME280;9016;53.582;10.062;2022-10-16T06:56:34;101083.34;;;15.08;87.19
17785;BME280;9016;53.582;10.062;2022-10-16T06:59:02;101086.91;;;15.09;87.30
17785;BME280;9016;53.582;10.062;2022-10-16T07:01:30;101089.03;;;15.04;87.25
17785;BME280;9016;53.582;10.062;2022-10-16T07:04:00;101090.53;;;15.08;87.71
17785;BME280;9016;53.582;10.062;2022-10-16T07:06:31;101094.47;;;15.15;87.74
17785;BME280;9016;53.582;10.062;2022-10-16T07:09:02;101105.22;;;15.15;88.23
17785;BME280;9016;53.582;10.062;2022-10-16T07:11:30;101103.22;;;15.29;88.23
17785;BME280;9016;53.582;10.062;2022-10-16T07:13:58;101105.97;;;15.53;87.63
17785;BME280;9016;53.582;10.062;2022-10-16T07:16:27;101106.91;;;15.75;86.06
17785;BME280;9016;53.582;10.062;2022-10-16T07:18:56;101107.06;;;15.85;85.24
17785;BME280;9016;53.582;10.062;2022-10-16T07:21:30;101111.25;;;15.89;85.02
17785;BME280;9016;53.582;10.062;2022-10-16T07:24:03;101107.13;;;16.07;84.22
17785;BME280;9016;53.582;10.062;2022-10-16T07:26:35;101110.69;;;16.08;84.95
17785;BME280;9016;53.582;10.062;2022-10-16T07:29:03;101117.31;;;16.15;84.13
17785;BME280;9016;53.582;10.062;2022-10-16T07:31:31;101117.19;;;16.27;83.63
17785;BME280;9016;53.582;10.062;2022-10-16T07:33:59;101119.88;;;16.27;83.14
17785;BME280;9016;53.582;10.062;2022-10-16T07:36:29;101126.38;;;16.25;83.43
17785;BME280;9016;53.582;10.062;2022-10-16T07:38:57;101128.34;;;16.23;83.51
17785;BME280;9016;53.582;10.062;2022-10-16T07:41:26;101134.66;;;16.22;83.86
17785;BME280;9016;53.582;10.062;2022-10-16T07:43:55;101142.81;;;16.09;83.94
17785;BME280;9016;53.582;10.062;2022-10-16T07:46:27;101144.44;;;16.12;84.56
17785;BME280;9016;53.582;10.062;2022-10-16T07:48:55;101152.22;;;16.04;84.81
17785;BME280;9016;53.582;10.062;2022-10-16T07:51:24;101141.78;;;16.23;84.60
17785;BME280;9016;53.582;10.062;2022-10-16T07:53:54;101152.72;;;16.43;83.55
17785;BME280;9016;53.582;10.062;2022-10-16T07:56:22;101140.75;;;16.58;83.08
17785;BME280;9016;53.582;10.062;2022-10-16T07:58:50;101148.09;;;16.67;82.62
17785;BME280;9016;53.582;10.062;2022-10-16T08:01:18;101148.22;;;16.77;82.13
17785;BME280;9016;53.582;10.062;2022-10-16T08:03:48;101144.59;;;16.89;81.44
17785;BME280;9016;53.582;10.062;2022-10-16T08:06:17;101138.94;;;16.81;81.53
17785;BME280;9016;53.582;10.062;2022-10-16T08:08:50;101153.75;;;16.87;80.51
17785;BME280;9016;53.582;10.062;2022-10-16T08:11:20;101151.06;;;16.98;80.78
17785;BME280;9016;53.582;10.062;2022-10-16T08:13:47;101164.50;;;16.98;80.62
17785;BME280;9016;53.582;10.062;2022-10-16T08:16:15;101166.59;;;16.94;80.83
17785;BME280;9016;53.582;10.062;2022-10-16T08:18:43;101162.06;;;16.83;80.83
17785;BME280;9016;53.582;10.062;2022-10-16T08:21:14;101166.25;;;16.88;81.09
17785;BME280;9016;53.582;10.062;2022-10-16T08:23:47;101168.41;;;16.82;80.78
17785;BME280;9016;53.582;10.062;2022-10-16T08:26:24;101167.81;;;16.90;81.10
17785;BME280;9016;53.582;10.062;2022-10-16T08:28:52;101173.81;;;16.94;80.45
17785;BME280;9016;53.582;10.062;2022-10-16T08:31:21;101177.72;;;16.90;80.86
17785;BME280;9016;53.582;10.062;2022-10-16T08:33:49;101171.38;;;16.91;80.37
17785;BME280;9016;53.582;10.062;2022-10-16T08:36:17;101174.06;;;17.02;80.24
17785;BME280;9016;53.582;10.062;2022-10-16T08:38:47;101162.66;;;17.20;78.72
17785;BME280;9016;53.582;10.062;2022-10-16T08:41:49;101164.47;;;17.53;76.23
17785;BME280;9016;53.582;10.062;2022-10-16T08:44:34;101175.34;;;17.62;75.10
17785;BME280;9016;53.582;10.062;2022-10-16T08:47:13;101178.78;;;17.64;74.50
17785;BME280;9016;53.582;10.062;2022-10-16T08:49:57;101177.16;;;17.73;74.62
17785;BME280;9016;53.582;10.062;2022-10-16T08:52:29;101174.59;;;17.71;75.05
17785;BME280;9016;53.582;10.062;2022-10-16T08:54:58;101180.84;;;17.72;74.75
17785;BME280;9016;53.582;10.062;2022-10-16T08:57:28;101189.44;;;17.66;75.01
17785;BME280;9016;53.582;10.062;2022-10-16T09:00:00;101186.97;;;17.74;74.97
17785;BME280;9016;53.582;10.062;2022-10-16T09:02:35;101188.31;;;17.79;74.59
17785;BME280;9016;53.582;10.062;2022-10-16T09:05:33;101195.88;;;17.74;74.00
17785;BME280;9016;53.582;10.062;2022-10-16T09:08:10;101200.44;;;17.74;74.30
17785;BME280;9016;53.582;10.062;2022-10-16T09:10:51;101201.66;;;17.81;74.06
17785;BME280;9016;53.582;10.062;2022-10-16T09:13:28;101214.19;;;18.03;73.40
17785;BME280;9016;53.582;10.062;2022-10-16T09:16:03;101222.09;;;17.95;72.95
17785;BME280;9016;53.582;10.062;2022-10-16T09:18:43;101210.44;;;17.94;72.55
17785;BME280;9016;53.582;10.062;2022-10-16T09:21:15;101210.06;;;17.88;72.28
17785;BME280;9016;53.582;10.062;2022-10-16T09:23:45;101205.03;;;17.94;73.71
17785;BME280;9016;53.582;10.062;2022-10-16T09:26:16;101213.00;;;17.96;73.28
17785;BME280;9016;53.582;10.062;2022-10-16T09:28:47;101216.88;;;18.03;71.52
17785;BME280;9016;53.582;10.062;2022-10-16T09:31:19;101220.00;;;18.19;72.33
17785;BME280;9016;53.582;10.062;2022-10-16T09:33:51;101225.56;;;18.38;70.22
17785;BME280;9016;53.582;10.062;2022-10-16T09:36:20;101226.53;;;18.48;69.74
17785;BME280;9016;53.582;10.062;2022-10-16T09:38:48;101223.28;;;18.54;70.07
17785;BME280;9016;53.582;10.062;2022-10-16T09:41:19;101227.13;;;18.51;68.26
17785;BME280;9016;53.582;10.062;2022-10-16T09:43:53;101234.56;;;18.59;68.67
17785;BME280;9016;53.582;10.062;2022-10-16T09:46:28;101218.63;;;18.56;68.43
17785;BME280;9016;53.582;10.062;2022-10-16T09:48:58;101223.13;;;18.46;68.04
17785;BME280;9016;53.582;10.062;2022-10-16T09:51:28;101213.66;;;18.40;68.43
17785;BME280;9016;53.582;10.062;2022-10-16T09:53:58;101224.25;;;18.32;67.64
17785;BME280;9016;53.582;10.062;2022-10-16T09:56:28;101226.81;;;18.34;67.60
17785;BME280;9016;53.582;10.062;2022-10-16T09:58:59;101232.34;;;18.32;67.49
17785;BME280;9016;53.582;10.062;2022-10-16T10:01:31;101249.53;;;18.31;67.59
17785;BME280;9016;53.582;10.062;2022-10-16T10:04:03;101256.03;;;18.29;67.21
17785;BME280;9016;53.582;10.062;2022-10-16T10:06:33;101259.53;;;18.40;67.50
17785;BME280;9016;53.582;10.062;2022-10-16T10:09:17;101265.22;;;18.26;67.69
17785;BME280;9016;53.582;10.062;2022-10-16T10:11:51;101260.06;;;18.34;67.91
17785;BME280;9016;53.582;10.062;2022-10-16T10:14:26;101266.03;;;18.38;67.58
17785;BME280;9016;53.582;10.062;2022-10-16T10:17:15;101273.91;;;18.30;67.61
17785;BME280;9016;53.582;10.062;2022-10-16T10:19:47;101268.66;;;18.28;68.44
17785;BME280;9016;53.582;10.062;2022-10-16T10:22:22;101271.84;;;18.33;68.47
17785;BME280;9016;53.582;10.062;2022-10-16T10:25:12;101277.25;;;18.33;67.67
17785;BME280;9016;53.582;10.062;2022-10-16T10:27:53;101274.19;;;18.27;67.52
17785;BME280;9016;53.582;10.062;2022-10-16T10:30:29;101274.44;;;18.24;67.79
17785;BME280;9016;53.582;10.062;2022-10-16T10:33:11;101275.13;;;18.37;68.07
17785;BME280;9016;53.582;10.062;2022-10-16T10:35:46;101274.31;;;18.25;67.81
17785;BME280;9016;53.582;10.062;2022-10-16T10:38:27;101273.25;;;18.17;68.26
17785;BME280;9016;53.582;10.062;2022-10-16T10:41:06;101288.28;;;18.30;67.47
17785;BME280;9016;53.582;10.062;2022-10-16T10:43:52;101289.47;;;18.37;66.98
17785;BME280;9016;53.582;10.062;2022-10-16T10:46:32;101282.00;;;18.30;66.15
17785;BME280;9016;53.582;10.062;2022-10-16T10:49:12;101288.72;;;18.46;65.83
17785;BME280;9016;53.582;10.062;2022-10-16T10:51:53;101275.97;;;18.69;64.67
17785;BME280;9016;53.582;10.062;2022-10-16T10:54:29;101281.38;;;18.90;64.00
17785;BME280;9016;53.582;10.062;2022-10-16T10:57:02;101293.72;;;19.03;62.86
17785;BME280;9016;53.582;10.062;2022-10-16T11:00:06;101291.59;;;18.86;61.57
17785;BME280;9016;53.582;10.062;2022-10-16T11:02:48;101285.69;;;18.92;61.36
17785;BME280;9016;53.582;10.062;2022-10-16T11:05:40;101289.13;;;19.04;61.40
17785;BME280;9016;53.582;10.062;2022-10-16T11:08:13;101292.19;;;19.10;61.56
17785;BME280;9016;53.582;10.062;2022-10-16T11:10:50;101288.38;;;18.92;60.50
17785;BME280;9016;53.582;10.062;2022-10-16T11:13:26;101289.03;;;18.85;60.58
17785;BME280;9016;53.582;10.062;2022-10-16T11:15:58;101285.13;;;18.98;60.22
17785;BME280;9016;53.582;10.062;2022-10-16T11:18:33;101288.91;;;19.07;60.01
17785;BME280;9016;53.582;10.062;2022-10-16T11:21:11;101298.84;;;19.06;60.72
17785;BME280;9016;53.582;10.062;2022-10-16T11:23:43;101303.66;;;19.03;59.99
17785;BME280;9016;53.582;10.062;2022-10-16T11:26:17;101292.47;;;19.07;60.12
17785;BME280;9016;53.582;10.062;2022-10-16T11:28:49;101302.78;;;19.23;60.14
17785;BME280;9016;53.582;10.062;2022-10-16T11:31:24;101306.88;;;19.17;58.51
17785;BME280;9016;53.582;10.062;2022-10-16T11:34:01;101318.94;;;19.34;58.24
17785;BME280;9016;53.582;10.062;2022-10-16T11:36:34;101314.84;;;19.39;58.47
17785;BME280;9016;53.582;10.062;2022-10-16T11:39:11;101321.03;;;19.30;57.53
17785;BME280;9016;53.582;10.062;2022-10-16T11:41:47;101330.72;;;19.12;57.58
17785;BME280;9016;53.582;10.062;2022-10-16T11:44:27;101331.38;;;19.25;58.17
17785;BME280;9016;53.582;10.062;2022-10-16T11:47:08;101333.19;;;19.36;56.75
17785;BME280;9016;53.582;10.062;2022-10-16T11:50:02;101334.53;;;19.51;56.93
17785;BME280;9016;53.582;10.062;2022-10-16T11:52:36;101332.59;;;19.62;56.77
17785;BME280;9016;53.582;10.062;2022-10-16T11:55:14;101336.16;;;19.63;56.96
17785;BME280;9016;53.582;10.062;2022-10-16T11:57:46;101336.97;;;19.54;57.54
17785;BME280;9016;53.582;10.062;2022-10-16T12:00:22;101340.47;;;19.45;57.37
17785;BME280;9016;53.582;10.062;2022-10-16T12:02:58;101354.78;;;19.56;57.66
17785;BME280;9016;53.582;10.062;2022-10-16T12:05:35;101349.75;;;19.52;57.17
17785;BME280;9016;53.582;10.062;2022-10-16T12:08:13;101358.66;;;19.43;58.09
17785;BME280;9016;53.582;10.062;2022-10-16T12:10:42;101356.03;;;19.32;57.17
17785;BME280;9016;53.582;10.062;2022-10-16T12:13:31;101355.53;;;19.38;56.47
17785;BME280;9016;53.582;10.062;2022-10-16T12:16:07;101350.75;;;19.30;57.53
17785;BME280;9016;53.582;10.062;2022-10-16T12:18:47;101363.03;;;19.55;57.24
17785;BME280;9016;53.582;10.062;2022-10-16T12:21:17;101365.94;;;19.72;56.54
17785;BME280;9016;53.582;10.062;2022-10-16T12:23:50;101374.19;;;19.71;56.09
17785;BME280;9016;53.582;10.062;2022-10-16T12:26:26;101385.41;;;19.66;56.26
17785;BME280;9016;53.582;10.062;2022-10-16T12:28:55;101378.25;;;19.56;56.88
17785;BME280;9016;53.582;10.062;2022-10-16T12:31:37;101385.56;;;19.44;56.53
17785;BME280;9016;53.582;10.062;2022-10-16T12:34:27;101384.97;;;19.41;57.07
17785;BME280;9016;53.582;10.062;2022-10-16T12:37:09;101387.72;;;19.30;56.67
17785;BME280;9016;53.582;10.062;2022-10-16T12:39:37;101385.00;;;19.30;56.02
17785;BME280;9016;53.582;10.062;2022-10-16T12:42:20;101392.53;;;19.26;55.29
17785;BME280;9016;53.582;10.062;2022-10-16T12:44:48;101394.34;;;19.16;55.43
17785;BME280;9016;53.582;10.062;2022-10-16T12:47:21;101399.13;;;19.13;54.89
17785;BME280;9016;53.582;10.062;2022-10-16T12:49:51;101400.19;;;19.21;54.76
17785;BME280;9016;53.582;10.062;2022-10-16T12:52:34;101397.31;;;19.34;53.48
17785;BME280;9016;53.582;10.062;2022-10-16T12:55:03;101410.56;;;19.37;53.87
17785;BME280;9016;53.582;10.062;2022-10-16T12:57:41;101412.72;;;19.43;52.86
17785;BME280;9016;53.582;10.062;2022-10-16T13:00:21;101418.94;;;19.34;52.79
17785;BME280;9016;53.582;10.062;2022-10-16T13:03:16;101426.56;;;19.29;53.00
17785;BME280;9016;53.582;10.062;2022-10-16T13:05:58;101424.97;;;19.26;52.98
17785;BME280;9016;53.582;10.062;2022-10-16T13:08:50;101435.53;;;19.29;52.15
17785;BME280;9016;53.582;10.062;2022-10-16T13:11:27;101426.41;;;19.10;53.29
17785;BME280;9016;53.582;10.062;2022-10-16T13:14:23;101429.22;;;19.08;52.92
17785;BME280;9016;53.582;10.062;2022-10-16T13:17:04;101439.66;;;19.13;52.88